sensor_id;sensor_type;location;lat;lon;timestamp;P1;durP1;ratioP1;P2;durP2;ratioP2
7669;SDS011;3877;42.562;27.636;2023-07-02T00:01:59;3.90;;;2.22;;
7669;SDS011;3877;42.562;27.636;2023-07-02T00:04:26;4.57;;;2.80;;
7669;SDS011;3877;42.562;27.636;2023-07-02T00:06:55;4.47;;;2.55;;
7669;SDS011;3877;42.562;27.636;2023-07-02T00:09:22;3.95;;;2.30;;
7669;SDS011;3877;42.562;27.636;2023-07-02T00:11:49;4.72;;;2.50;;
7669;SDS011;3877;42.562;27.636;2023-07-02T00:14:16;6.43;;;2.60;;
7669;SDS011;3877;42.562;27.636;2023-07-02T00:16:44;5.78;;;2.80;;
7669;SDS011;3877;42.562;27.636;2023-07-02T00:19:13;3.00;;;2.80;;
7669;SDS011;3877;42.562;27.636;2023-07-02T00:21:41;4.10;;;2.90;;
7669;SDS011;3877;42.562;27.636;2023-07-02T00:24:09;7.68;;;2.80;;
7669;SDS011;3877;42.562;27.636;2023-07-02T00:26:37;4.20;;;3.38;;
7669;SDS011;3877;42.562;27.636;2023-07-02T00:29:05;3.88;;;2.95;;
7669;SDS011;3877;42.562;27.636;2023-07-02T00:31:34;7.25;;;2.88;;
7669;SDS011;3877;42.562;27.636;2023-07-02T00:34:01;5.30;;;3.20;;
7669;SDS011;3877;42.562;27.636;2023-07-02T00:36:30;3.60;;;2.90;;
7669;SDS011;3877;42.562;27.636;2023-07-02T00:38:57;5.50;;;2.95;;
7669;SDS011;3877;42.562;27.636;2023-07-02T00:41:26;4.28;;;3.17;;
7669;SDS011;3877;42.562;27.636;2023-07-02T00:43:54;4.00;;;3.05;;
7669;SDS011;3877;42.562;27.636;2023-07-02T00:46:21;5.13;;;3.13;;
7669;SDS011;3877;42.562;27.636;2023-07-02T00:48:50;3.65;;;2.50;;
7669;SDS011;3877;42.562;27.636;2023-07-02T00:51:19;8.98;;;3.10;;
7669;SDS011;3877;42.562;27.636;2023-07-02T00:53:49;5.38;;;3.30;;
7669;SDS011;3877;42.562;27.636;2023-07-02T00:56:17;4.88;;;3.10;;
7669;SDS011;3877;42.562;27.636;2023-07-02T00:58:47;3.28;;;2.92;;
7669;SDS011;3877;42.562;27.636;2023-07-02T01:01:16;7.55;;;3.13;;
7669;SDS011;3877;42.562;27.636;2023-07-02T01:03:50;4.80;;;3.08;;
7669;SDS011;3877;42.562;27.636;2023-07-02T01:06:19;5.80;;;3.28;;
7669;SDS011;3877;42.562;27.636;2023-07-02T01:08:51;8.32;;;3.38;;
7669;SDS011;3877;42.562;27.636;2023-07-02T01:11:19;4.68;;;3.28;;
7669;SDS011;3877;42.562;27.636;2023-07-02T01:13:52;7.07;;;3.10;;
7669;SDS011;3877;42.562;27.636;2023-07-02T01:16:21;5.40;;;3.13;;
7669;SDS011;3877;42.562;27.636;2023-07-02T01:18:49;9.93;;;3.58;;
7669;SDS011;3877;42.562;27.636;2023-07-02T01:21:21;4.38;;;3.08;;
7669;SDS011;3877;42.562;27.636;2023-07-02T01:23:50;5.93;;;3.58;;
7669;SDS011;3877;42.562;27.636;2023-07-02T01:26:18;3.60;;;3.30;;
7669;SDS011;3877;42.562;27.636;2023-07-02T01:28:46;4.03;;;3.28;;
7669;SDS011;3877;42.562;27.636;2023-07-02T01:31:13;4.82;;;3.50;;
7669;SDS011;3877;42.562;27.636;2023-07-02T01:33:40;5.95;;;3.28;;
7669;SDS011;3877;42.562;27.636;2023-07-02T01:36:08;5.38;;;3.50;;
7669;SDS011;3877;42.562;27.636;2023-07-02T01:38:37;3.90;;;3.60;;
7669;SDS011;3877;42.562;27.636;2023-07-02T01:41:04;4.15;;;3.47;;
7669;SDS011;3877;42.562;27.636;2023-07-02T01:43:31;7.57;;;3.47;;
7669;SDS011;3877;42.562;27.636;2023-07-02T01:45:59;3.58;;;3.10;;
7669;SDS011;3877;42.562;27.636;2023-07-02T01:48:26;5.68;;;3.50;;
7669;SDS011;3877;42.562;27.636;2023-07-02T01:50:54;5.30;;;3.50;;
7669;SDS011;3877;42.562;27.636;2023-07-02T01:53:22;4.93;;;3.40;;
7669;SDS011;3877;42.562;27.636;2023-07-02T01:55:50;3.95;;;3.10;;
7669;SDS011;3877;42.562;27.636;2023-07-02T01:58:17;8.32;;;3.75;;
7669;SDS011;3877;42.562;27.636;2023-07-02T02:00:45;4.25;;;3.30;;
7669;SDS011;3877;42.562;27.636;2023-07-02T02:03:13;5.90;;;3.35;;
7669;SDS011;3877;42.562;27.636;2023-07-02T02:05:40;7.00;;;3.20;;
7669;SDS011;3877;42.562;27.636;2023-07-02T02:08:08;3.60;;;3.30;;
7669;SDS011;3877;42.562;27.636;2023-07-02T02:10:35;6.13;;;3.50;;
7669;SDS011;3877;42.562;27.636;2023-07-02T02:13:04;5.20;;;3.42;;
7669;SDS011;3877;42.562;27.636;2023-07-02T02:15:31;6.57;;;3.50;;
7669;SDS011;3877;42.562;27.636;2023-07-02T02:17:59;8.88;;;3.80;;
7669;SDS011;3877;42.562;27.636;2023-07-02T02:20:26;6.53;;;3.40;;
7669;SDS011;3877;42.562;27.636;2023-07-02T02:22:53;4.53;;;3.28;;
7669;SDS011;3877;42.562;27.636;2023-07-02T02:25:20;4.93;;;3.38;;
7669;SDS011;3877;42.562;27.636;2023-07-02T02:27:47;3.55;;;3.20;;
7669;SDS011;3877;42.562;27.636;2023-07-02T02:30:16;3.95;;;3.22;;
7669;SDS011;3877;42.562;27.636;2023-07-02T02:32:43;8.23;;;3.95;;
7669;SDS011;3877;42.562;27.636;2023-07-02T02:35:11;6.97;;;3.33;;
7669;SDS011;3877;42.562;27.636;2023-07-02T02:37:38;6.95;;;3.60;;
7669;SDS011;3877;42.562;27.636;2023-07-02T02:40:06;4.70;;;3.28;;
7669;SDS011;3877;42.562;27.636;2023-07-02T02:42:35;6.40;;;3.70;;
7669;SDS011;3877;42.562;27.636;2023-07-02T02:45:02;7.43;;;3.25;;
7669;SDS011;3877;42.562;27.636;2023-07-02T02:47:31;6.38;;;3.42;;
7669;SDS011;3877;42.562;27.636;2023-07-02T02:49:59;5.10;;;3.85;;
7669;SDS011;3877;42.562;27.636;2023-07-02T02:52:26;7.43;;;3.67;;
7669;SDS011;3877;42.562;27.636;2023-07-02T02:54:54;8.85;;;3.97;;
7669;SDS011;3877;42.562;27.636;2023-07-02T02:57:21;5.47;;;3.38;;
7669;SDS011;3877;42.562;27.636;2023-07-02T02:59:48;5.60;;;3.78;;
7669;SDS011;3877;42.562;27.636;2023-07-02T03:02:16;4.72;;;3.75;;
7669;SDS011;3877;42.562;27.636;2023-07-02T03:04:44;7.53;;;3.92;;
7669;SDS011;3877;42.562;27.636;2023-07-02T03:07:11;9.23;;;3.85;;
7669;SDS011;3877;42.562;27.636;2023-07-02T03:09:38;6.30;;;3.90;;
7669;SDS011;3877;42.562;27.636;2023-07-02T03:12:06;7.28;;;3.53;;
7669;SDS011;3877;42.562;27.636;2023-07-02T03:14:33;4.45;;;3.60;;
7669;SDS011;3877;42.562;27.636;2023-07-02T03:17:01;6.70;;;3.58;;
7669;SDS011;3877;42.562;27.636;2023-07-02T03:19:28;8.38;;;3.35;;
7669;SDS011;3877;42.562;27.636;2023-07-02T03:21:57;4.45;;;3.17;;
7669;SDS011;3877;42.562;27.636;2023-07-02T03:24:24;5.80;;;3.28;;
7669;SDS011;3877;42.562;27.636;2023-07-02T03:26:51;6.28;;;3.33;;
7669;SDS011;3877;42.562;27.636;2023-07-02T03:29:18;3.85;;;3.13;;
7669;SDS011;3877;42.562;27.636;2023-07-02T03:31:45;10.45;;;3.63;;
7669;SDS011;3877;42.562;27.636;2023-07-02T03:34:13;5.40;;;3.13;;
7669;SDS011;3877;42.562;27.636;2023-07-02T03:36:40;5.57;;;3.50;;
7669;SDS011;3877;42.562;27.636;2023-07-02T03:39:08;6.90;;;3.17;;
7669;SDS011;3877;42.562;27.636;2023-07-02T03:41:35;4.00;;;3.03;;
7669;SDS011;3877;42.562;27.636;2023-07-02T03:44:03;5.03;;;3.08;;
7669;SDS011;3877;42.562;27.636;2023-07-02T03:46:30;5.75;;;2.80;;
7669;SDS011;3877;42.562;27.636;2023-07-02T03:48:57;5.93;;;2.80;;
7669;SDS011;3877;42.562;27.636;2023-07-02T03:51:24;4.13;;;2.60;;
7669;SDS011;3877;42.562;27.636;2023-07-02T03:53:52;3.38;;;2.58;;
7669;SDS011;3877;42.562;27.636;2023-07-02T03:56:21;8.30;;;2.80;;
7669;SDS011;3877;42.562;27.636;2023-07-02T03:58:48;3.80;;;2.75;;
7669;SDS011;3877;42.562;27.636;2023-07-02T04:01:16;5.82;;;3.05;;
7669;SDS011;3877;42.562;27.636;2023-07-02T04:03:47;10.95;;;3.55;;
7669;SDS011;3877;42.562;27.636;2023-07-02T04:17:33;3.65;;;2.42;;
7669;SDS011;3877;42.562;27.636;2023-07-02T04:20:01;5.47;;;2.97;;
7669;SDS011;3877;42.562;27.636;2023-07-02T04:22:29;3.03;;;2.58;;
7669;SDS011;3877;42.562;27.636;2023-07-02T04:24:56;5.25;;;3.58;;
7669;SDS011;3877;42.562;27.636;2023-07-02T04:27:24;3.47;;;3.10;;
7669;SDS011;3877;42.562;27.636;2023-07-02T04:29:52;6.50;;;3.80;;
7669;SDS011;3877;42.562;27.636;2023-07-02T04:32:21;5.80;;;3.90;;
7669;SDS011;3877;42.562;27.636;2023-07-02T04:34:49;8.07;;;4.65;;
7669;SDS011;3877;42.562;27.636;2023-07-02T04:37:17;4.45;;;4.05;;
7669;SDS011;3877;42.562;27.636;2023-07-02T04:39:45;7.63;;;4.10;;
7669;SDS011;3877;42.562;27.636;2023-07-02T04:42:12;6.68;;;4.15;;
7669;SDS011;3877;42.562;27.636;2023-07-02T04:44:40;5.32;;;4.60;;
7669;SDS011;3877;42.562;27.636;2023-07-02T04:47:08;5.60;;;4.22;;
7669;SDS011;3877;42.562;27.636;2023-07-02T04:49:36;6.13;;;4.75;;
7669;SDS011;3877;42.562;27.636;2023-07-02T04:52:05;7.43;;;4.63;;
7669;SDS011;3877;42.562;27.636;2023-07-02T04:54:32;7.47;;;4.80;;
7669;SDS011;3877;42.562;27.636;2023-07-02T04:56:59;7.43;;;4.78;;
7669;SDS011;3877;42.562;27.636;2023-07-02T04:59:27;7.97;;;4.80;;
7669;SDS011;3877;42.562;27.636;2023-07-02T05:01:54;4.68;;;4.10;;
7669;SDS011;3877;42.562;27.636;2023-07-02T05:04:21;6.43;;;4.10;;
7669;SDS011;3877;42.562;27.636;2023-07-02T05:06:48;5.97;;;4.32;;
7669;SDS011;3877;42.562;27.636;2023-07-02T05:09:17;5.40;;;4.10;;
7669;SDS011;3877;42.562;27.636;2023-07-02T05:11:44;9.90;;;3.97;;
7669;SDS011;3877;42.562;27.636;2023-07-02T05:14:11;7.05;;;3.95;;
7669;SDS011;3877;42.562;27.636;2023-07-02T05:16:38;6.28;;;4.30;;
7669;SDS011;3877;42.562;27.636;2023-07-02T05:19:06;7.68;;;3.75;;
7669;SDS011;3877;42.562;27.636;2023-07-02T05:21:33;4.75;;;3.70;;
7669;SDS011;3877;42.562;27.636;2023-07-02T05:24:00;4.05;;;3.65;;
7669;SDS011;3877;42.562;27.636;2023-07-02T05:26:29;5.43;;;3.80;;
7669;SDS011;3877;42.562;27.636;2023-07-02T05:28:56;5.80;;;3.63;;
7669;SDS011;3877;42.562;27.636;2023-07-02T05:31:23;5.65;;;4.00;;
7669;SDS011;3877;42.562;27.636;2023-07-02T05:33:50;4.88;;;3.55;;
7669;SDS011;3877;42.562;27.636;2023-07-02T05:36:18;5.10;;;4.07;;
7669;SDS011;3877;42.562;27.636;2023-07-02T05:38:45;5.90;;;4.28;;
7669;SDS011;3877;42.562;27.636;2023-07-02T05:41:17;5.32;;;3.85;;
7669;SDS011;3877;42.562;27.636;2023-07-02T05:43:46;6.15;;;3.80;;
7669;SDS011;3877;42.562;27.636;2023-07-02T05:46:14;8.48;;;4.18;;
7669;SDS011;3877;42.562;27.636;2023-07-02T05:48:41;6.53;;;4.30;;
7669;SDS011;3877;42.562;27.636;2023-07-02T05:51:09;8.00;;;4.72;;
7669;SDS011;3877;42.562;27.636;2023-07-02T05:53:36;5.82;;;3.95;;
7669;SDS011;3877;42.562;27.636;2023-07-02T05:56:04;7.13;;;4.10;;
7669;SDS011;3877;42.562;27.636;2023-07-02T05:58:31;9.75;;;4.50;;
7669;SDS011;3877;42.562;27.636;2023-07-02T06:01:00;6.32;;;4.53;;
7669;SDS011;3877;42.562;27.636;2023-07-02T06:03:27;7.07;;;4.15;;
7669;SDS011;3877;42.562;27.636;2023-07-02T06:05:54;7.53;;;4.70;;
7669;SDS011;3877;42.562;27.636;2023-07-02T06:08:21;5.47;;;4.25;;
7669;SDS011;3877;42.562;27.636;2023-07-02T06:10:48;4.95;;;3.97;;
7669;SDS011;3877;42.562;27.636;2023-07-02T06:13:16;5.60;;;4.18;;
7669;SDS011;3877;42.562;27.636;2023-07-02T06:19:06;6.00;;;3.67;;
7669;SDS011;3877;42.562;27.636;2023-07-02T06:21:33;11.15;;;4.55;;
7669;SDS011;3877;42.562;27.636;2023-07-02T06:24:01;6.88;;;4.03;;
7669;SDS011;3877;42.562;27.636;2023-07-02T06:26:28;6.10;;;4.00;;
7669;SDS011;3877;42.562;27.636;2023-07-02T06:28:57;10.30;;;3.97;;
7669;SDS011;3877;42.562;27.636;2023-07-02T06:31:24;8.05;;;5.10;;
7669;SDS011;3877;42.562;27.636;2023-07-02T06:33:51;8.27;;;4.13;;
7669;SDS011;3877;42.562;27.636;2023-07-02T06:36:20;7.22;;;4.15;;
7669;SDS011;3877;42.562;27.636;2023-07-02T06:38:47;8.73;;;4.30;;
7669;SDS011;3877;42.562;27.636;2023-07-02T06:41:15;7.20;;;3.65;;
7669;SDS011;3877;42.562;27.636;2023-07-02T06:43:43;5.53;;;4.28;;
7669;SDS011;3877;42.562;27.636;2023-07-02T06:46:10;8.15;;;4.15;;
7669;SDS011;3877;42.562;27.636;2023-07-02T06:48:37;6.03;;;4.15;;
7669;SDS011;3877;42.562;27.636;2023-07-02T06:51:05;10.02;;;4.22;;
7669;SDS011;3877;42.562;27.636;2023-07-02T06:53:35;9.52;;;4.07;;
7669;SDS011;3877;42.562;27.636;2023-07-02T06:56:03;6.47;;;4.18;;
7669;SDS011;3877;42.562;27.636;2023-07-02T06:58:30;5.07;;;4.20;;
7669;SDS011;3877;42.562;27.636;2023-07-02T07:00:57;5.53;;;3.83;;
7669;SDS011;3877;42.562;27.636;2023-07-02T07:03:24;7.50;;;3.80;;
7669;SDS011;3877;42.562;27.636;2023-07-02T07:05:52;10.20;;;4.35;;
7669;SDS011;3877;42.562;27.636;2023-07-02T07:08:19;6.22;;;4.10;;
7669;SDS011;3877;42.562;27.636;2023-07-02T07:10:49;7.53;;;4.45;;
7669;SDS011;3877;42.562;27.636;2023-07-02T07:13:16;7.97;;;3.88;;
7669;SDS011;3877;42.562;27.636;2023-07-02T07:15:44;5.80;;;4.05;;
7669;SDS011;3877;42.562;27.636;2023-07-02T07:18:29;6.70;;;3.83;;
7669;SDS011;3877;42.562;27.636;2023-07-02T07:20:56;6.32;;;4.18;;
7669;SDS011;3877;42.562;27.636;2023-07-02T07:23:24;5.32;;;4.80;;
7669;SDS011;3877;42.562;27.636;2023-07-02T07:25:52;6.20;;;4.30;;
7669;SDS011;3877;42.562;27.636;2023-07-02T07:28:19;6.20;;;4.18;;
7669;SDS011;3877;42.562;27.636;2023-07-02T07:30:47;5.22;;;4.53;;
7669;SDS011;3877;42.562;27.636;2023-07-02T07:33:14;5.35;;;3.63;;
7669;SDS011;3877;42.562;27.636;2023-07-02T07:35:41;6.80;;;4.30;;
7669;SDS011;3877;42.562;27.636;2023-07-02T07:38:08;9.30;;;4.55;;
7669;SDS011;3877;42.562;27.636;2023-07-02T07:40:36;9.27;;;4.60;;
7669;SDS011;3877;42.562;27.636;2023-07-02T07:43:05;6.57;;;4.50;;
7669;SDS011;3877;42.562;27.636;2023-07-02T07:45:33;7.32;;;4.80;;
7669;SDS011;3877;42.562;27.636;2023-07-02T07:48:00;7.03;;;4.00;;
7669;SDS011;3877;42.562;27.636;2023-07-02T07:50:27;8.18;;;3.92;;
7669;SDS011;3877;42.562;27.636;2023-07-02T07:52:55;8.23;;;4.13;;
7669;SDS011;3877;42.562;27.636;2023-07-02T07:55:22;6.40;;;4.22;;
7669;SDS011;3877;42.562;27.636;2023-07-02T07:57:50;7.35;;;4.10;;
7669;SDS011;3877;42.562;27.636;2023-07-02T08:00:19;5.97;;;3.97;;
7669;SDS011;3877;42.562;27.636;2023-07-02T08:02:46;8.75;;;3.88;;
7669;SDS011;3877;42.562;27.636;2023-07-02T08:05:14;7.85;;;4.07;;
7669;SDS011;3877;42.562;27.636;2023-07-02T08:07:41;5.53;;;4.60;;
7669;SDS011;3877;42.562;27.636;2023-07-02T08:10:08;5.65;;;3.95;;
7669;SDS011;3877;42.562;27.636;2023-07-02T08:12:36;9.48;;;4.30;;
7669;SDS011;3877;42.562;27.636;2023-07-02T08:15:04;4.63;;;4.15;;
7669;SDS011;3877;42.562;27.636;2023-07-02T08:17:33;9.20;;;4.03;;
7669;SDS011;3877;42.562;27.636;2023-07-02T08:20:01;6.53;;;4.13;;
7669;SDS011;3877;42.562;27.636;2023-07-02T08:22:30;6.38;;;3.70;;
7669;SDS011;3877;42.562;27.636;2023-07-02T08:24:57;7.45;;;4.10;;
7669;SDS011;3877;42.562;27.636;2023-07-02T08:27:24;9.60;;;4.20;;
7669;SDS011;3877;42.562;27.636;2023-07-02T08:29:52;7.85;;;4.13;;
7669;SDS011;3877;42.562;27.636;2023-07-02T08:32:19;8.57;;;4.28;;
7669;SDS011;3877;42.562;27.636;2023-07-02T08:34:47;4.82;;;3.85;;
7669;SDS011;3877;42.562;27.636;2023-07-02T08:37:15;7.90;;;4.00;;
7669;SDS011;3877;42.562;27.636;2023-07-02T08:39:43;7.88;;;4.32;;
7669;SDS011;3877;42.562;27.636;2023-07-02T08:42:10;8.95;;;3.78;;
7669;SDS011;3877;42.562;27.636;2023-07-02T08:44:37;6.75;;;3.83;;
7669;SDS011;3877;42.562;27.636;2023-07-02T08:47:05;10.43;;;4.85;;
7669;SDS011;3877;42.562;27.636;2023-07-02T08:49:33;7.03;;;4.10;;
7669;SDS011;3877;42.562;27.636;2023-07-02T08:52:01;7.30;;;4.53;;
7669;SDS011;3877;42.562;27.636;2023-07-02T08:54:29;6.25;;;3.97;;
7669;SDS011;3877;42.562;27.636;2023-07-02T08:56:56;9.60;;;4.15;;
7669;SDS011;3877;42.562;27.636;2023-07-02T08:59:23;8.65;;;4.85;;
7669;SDS011;3877;42.562;27.636;2023-07-02T09:01:51;6.68;;;3.90;;
7669;SDS011;3877;42.562;27.636;2023-07-02T09:04:19;12.25;;;4.15;;
7669;SDS011;3877;42.562;27.636;2023-07-02T09:06:48;6.68;;;4.10;;
7669;SDS011;3877;42.562;27.636;2023-07-02T09:09:19;6.15;;;4.45;;
7669;SDS011;3877;42.562;27.636;2023-07-02T09:11:47;6.55;;;4.45;;
7669;SDS011;3877;42.562;27.636;2023-07-02T09:14:24;7.88;;;3.80;;
7669;SDS011;3877;42.562;27.636;2023-07-02T09:17:02;8.13;;;4.00;;
7669;SDS011;3877;42.562;27.636;2023-07-02T09:19:34;5.00;;;3.70;;
7669;SDS011;3877;42.562;27.636;2023-07-02T09:22:02;4.07;;;3.78;;
7669;SDS011;3877;42.562;27.636;2023-07-02T09:24:32;5.57;;;4.05;;
7669;SDS011;3877;42.562;27.636;2023-07-02T09:27:00;5.68;;;3.80;;
7669;SDS011;3877;42.562;27.636;2023-07-02T09:29:28;5.32;;;3.63;;
7669;SDS011;3877;42.562;27.636;2023-07-02T09:31:57;5.15;;;3.78;;
7669;SDS011;3877;42.562;27.636;2023-07-02T09:34:28;7.03;;;3.80;;
7669;SDS011;3877;42.562;27.636;2023-07-02T09:36:56;4.55;;;3.85;;
7669;SDS011;3877;42.562;27.636;2023-07-02T09:39:25;6.00;;;4.18;;
7669;SDS011;3877;42.562;27.636;2023-07-02T09:41:56;4.97;;;4.15;;
7669;SDS011;3877;42.562;27.636;2023-07-02T09:44:27;3.85;;;3.55;;
7669;SDS011;3877;42.562;27.636;2023-07-02T09:46:59;5.10;;;3.45;;
7669;SDS011;3877;42.562;27.636;2023-07-02T09:49:31;6.22;;;3.67;;
7669;SDS011;3877;42.562;27.636;2023-07-02T09:51:59;6.15;;;3.42;;
7669;SDS011;3877;42.562;27.636;2023-07-02T09:54:27;7.18;;;3.22;;
7669;SDS011;3877;42.562;27.636;2023-07-02T09:56:56;10.75;;;4.20;;
7669;SDS011;3877;42.562;27.636;2023-07-02T09:59:25;4.35;;;3.40;;
7669;SDS011;3877;42.562;27.636;2023-07-02T10:01:52;9.05;;;3.63;;
7669;SDS011;3877;42.562;27.636;2023-07-02T10:04:20;6.00;;;3.90;;
7669;SDS011;3877;42.562;27.636;2023-07-02T10:06:49;6.55;;;3.33;;
7669;SDS011;3877;42.562;27.636;2023-07-02T10:09:17;5.70;;;3.38;;
7669;SDS011;3877;42.562;27.636;2023-07-02T10:11:45;4.65;;;3.40;;
7669;SDS011;3877;42.562;27.636;2023-07-02T10:14:14;5.65;;;3.33;;
7669;SDS011;3877;42.562;27.636;2023-07-02T10:16:48;6.55;;;3.40;;
7669;SDS011;3877;42.562;27.636;2023-07-02T10:19:16;4.28;;;3.10;;
7669;SDS011;3877;42.562;27.636;2023-07-02T10:21:44;5.97;;;3.30;;
7669;SDS011;3877;42.562;27.636;2023-07-02T10:24:15;4.85;;;3.35;;
7669;SDS011;3877;42.562;27.636;2023-07-02T10:26:54;4.57;;;3.17;;
7669;SDS011;3877;42.562;27.636;2023-07-02T10:29:23;7.03;;;3.72;;
7669;SDS011;3877;42.562;27.636;2023-07-02T10:31:52;8.05;;;4.00;;
7669;SDS011;3877;42.562;27.636;2023-07-02T10:34:29;6.30;;;3.65;;
7669;SDS011;3877;42.562;27.636;2023-07-02T10:36:57;6.30;;;3.58;;
7669;SDS011;3877;42.562;27.636;2023-07-02T10:39:27;6.80;;;3.58;;
7669;SDS011;3877;42.562;27.636;2023-07-02T10:42:05;4.05;;;3.53;;
7669;SDS011;3877;42.562;27.636;2023-07-02T10:44:33;9.05;;;3.65;;
7669;SDS011;3877;42.562;27.636;2023-07-02T10:47:03;6.82;;;3.97;;
7669;SDS011;3877;42.562;27.636;2023-07-02T10:49:31;7.07;;;3.85;;
7669;SDS011;3877;42.562;27.636;2023-07-02T10:51:59;7.00;;;3.60;;
7669;SDS011;3877;42.562;27.636;2023-07-02T10:54:37;7.10;;;3.78;;
7669;SDS011;3877;42.562;27.636;2023-07-02T10:57:06;4.60;;;3.85;;
7669;SDS011;3877;42.562;27.636;2023-07-02T10:59:35;5.05;;;3.85;;
7669;SDS011;3877;42.562;27.636;2023-07-02T11:02:03;10.30;;;3.80;;
7669;SDS011;3877;42.562;27.636;2023-07-02T11:04:31;6.20;;;3.58;;
7669;SDS011;3877;42.562;27.636;2023-07-02T11:06:59;4.70;;;3.35;;
7669;SDS011;3877;42.562;27.636;2023-07-02T11:09:26;6.07;;;4.20;;
7669;SDS011;3877;42.562;27.636;2023-07-02T11:11:54;3.90;;;3.40;;
7669;SDS011;3877;42.562;27.636;2023-07-02T11:14:29;5.70;;;3.47;;
7669;SDS011;3877;42.562;27.636;2023-07-02T11:16:59;5.72;;;3.30;;
7669;SDS011;3877;42.562;27.636;2023-07-02T11:19:28;5.00;;;3.47;;
7669;SDS011;3877;42.562;27.636;2023-07-02T11:21:56;6.28;;;3.42;;
7669;SDS011;3877;42.562;27.636;2023-07-02T11:24:28;7.20;;;3.92;;
7669;SDS011;3877;42.562;27.636;2023-07-02T11:26:56;4.00;;;3.53;;
7669;SDS011;3877;42.562;27.636;2023-07-02T11:29:24;10.02;;;3.80;;
7669;SDS011;3877;42.562;27.636;2023-07-02T11:31:52;5.78;;;3.67;;
7669;SDS011;3877;42.562;27.636;2023-07-02T11:34:21;7.25;;;4.05;;
7669;SDS011;3877;42.562;27.636;2023-07-02T11:36:50;4.85;;;3.85;;
7669;SDS011;3877;42.562;27.636;2023-07-02T11:39:19;4.38;;;3.67;;
7669;SDS011;3877;42.562;27.636;2023-07-02T11:41:47;7.15;;;4.40;;
7669;SDS011;3877;42.562;27.636;2023-07-02T11:44:15;7.30;;;4.25;;
7669;SDS011;3877;42.562;27.636;2023-07-02T11:46:43;5.90;;;3.90;;
7669;SDS011;3877;42.562;27.636;2023-07-02T11:49:12;7.57;;;4.15;;
7669;SDS011;3877;42.562;27.636;2023-07-02T11:51:42;6.90;;;4.40;;
7669;SDS011;3877;42.562;27.636;2023-07-02T11:54:13;8.15;;;4.13;;
7669;SDS011;3877;42.562;27.636;2023-07-02T11:56:41;5.13;;;3.97;;
7669;SDS011;3877;42.562;27.636;2023-07-02T11:59:09;7.35;;;4.20;;
7669;SDS011;3877;42.562;27.636;2023-07-02T12:01:36;6.32;;;4.50;;
7669;SDS011;3877;42.562;27.636;2023-07-02T12:04:04;7.95;;;4.40;;
7669;SDS011;3877;42.562;27.636;2023-07-02T12:06:33;4.90;;;4.28;;
7669;SDS011;3877;42.562;27.636;2023-07-02T12:09:02;7.13;;;5.10;;
7669;SDS011;3877;42.562;27.636;2023-07-02T12:11:29;8.57;;;5.38;;
7669;SDS011;3877;42.562;27.636;2023-07-02T12:13:57;5.53;;;4.80;;
7669;SDS011;3877;42.562;27.636;2023-07-02T12:16:24;7.65;;;5.30;;
7669;SDS011;3877;42.562;27.636;2023-07-02T12:18:51;9.35;;;5.13;;
7669;SDS011;3877;42.562;27.636;2023-07-02T12:21:18;10.63;;;4.63;;
7669;SDS011;3877;42.562;27.636;2023-07-02T12:23:45;7.72;;;5.45;;
7669;SDS011;3877;42.562;27.636;2023-07-02T12:26:14;9.35;;;4.93;;
7669;SDS011;3877;42.562;27.636;2023-07-02T12:28:41;6.57;;;4.90;;
7669;SDS011;3877;42.562;27.636;2023-07-02T12:31:08;7.10;;;5.28;;
7669;SDS011;3877;42.562;27.636;2023-07-02T12:33:38;7.00;;;5.10;;
7669;SDS011;3877;42.562;27.636;2023-07-02T12:36:05;7.35;;;5.03;;
7669;SDS011;3877;42.562;27.636;2023-07-02T12:38:32;7.95;;;5.53;;
7669;SDS011;3877;42.562;27.636;2023-07-02T12:41:00;7.97;;;5.03;;
7669;SDS011;3877;42.562;27.636;2023-07-02T12:43:28;7.00;;;4.97;;
7669;SDS011;3877;42.562;27.636;2023-07-02T12:45:56;7.15;;;5.15;;
7669;SDS011;3877;42.562;27.636;2023-07-02T12:48:23;9.35;;;5.05;;
7669;SDS011;3877;42.562;27.636;2023-07-02T12:50:53;7.78;;;4.97;;
7669;SDS011;3877;42.562;27.636;2023-07-02T12:53:22;8.10;;;5.15;;
7669;SDS011;3877;42.562;27.636;2023-07-02T12:55:49;6.43;;;5.10;;
7669;SDS011;3877;42.562;27.636;2023-07-02T12:58:16;9.68;;;5.50;;
7669;SDS011;3877;42.562;27.636;2023-07-02T13:00:46;6.47;;;5.65;;
7669;SDS011;3877;42.562;27.636;2023-07-02T13:03:14;9.50;;;5.40;;
7669;SDS011;3877;42.562;27.636;2023-07-02T13:05:43;5.80;;;4.60;;
7669;SDS011;3877;42.562;27.636;2023-07-02T13:08:11;5.10;;;4.60;;
7669;SDS011;3877;42.562;27.636;2023-07-02T13:10:38;5.00;;;4.50;;
7669;SDS011;3877;42.562;27.636;2023-07-02T13:13:05;8.82;;;4.53;;
7669;SDS011;3877;42.562;27.636;2023-07-02T13:15:32;7.05;;;4.38;;
7669;SDS011;3877;42.562;27.636;2023-07-02T13:18:02;5.78;;;4.30;;
7669;SDS011;3877;42.562;27.636;2023-07-02T13:20:29;8.25;;;4.35;;
7669;SDS011;3877;42.562;27.636;2023-07-02T13:22:56;9.00;;;4.43;;
7669;SDS011;3877;42.562;27.636;2023-07-02T13:25:24;8.73;;;4.40;;
7669;SDS011;3877;42.562;27.636;2023-07-02T13:27:52;10.02;;;4.95;;
7669;SDS011;3877;42.562;27.636;2023-07-02T13:30:19;6.82;;;4.50;;
7669;SDS011;3877;42.562;27.636;2023-07-02T13:32:47;15.45;;;5.57;;
7669;SDS011;3877;42.562;27.636;2023-07-02T13:35:15;6.53;;;4.60;;
7669;SDS011;3877;42.562;27.636;2023-07-02T13:37:42;7.60;;;4.57;;
7669;SDS011;3877;42.562;27.636;2023-07-02T13:40:10;5.82;;;4.35;;
7669;SDS011;3877;42.562;27.636;2023-07-02T13:42:40;11.50;;;5.93;;
7669;SDS011;3877;42.562;27.636;2023-07-02T13:45:08;8.52;;;5.18;;
7669;SDS011;3877;42.562;27.636;2023-07-02T13:47:36;5.97;;;4.90;;
7669;SDS011;3877;42.562;27.636;2023-07-02T13:50:04;9.85;;;5.30;;
7669;SDS011;3877;42.562;27.636;2023-07-02T13:52:34;9.40;;;5.10;;
7669;SDS011;3877;42.562;27.636;2023-07-02T13:55:01;7.85;;;5.40;;
7669;SDS011;3877;42.562;27.636;2023-07-02T13:57:29;9.45;;;5.38;;
7669;SDS011;3877;42.562;27.636;2023-07-02T13:59:57;8.80;;;5.07;;
7669;SDS011;3877;42.562;27.636;2023-07-02T14:02:25;10.07;;;4.75;;
7669;SDS011;3877;42.562;27.636;2023-07-02T14:04:52;9.68;;;5.40;;
7669;SDS011;3877;42.562;27.636;2023-07-02T14:07:19;7.35;;;5.00;;
7669;SDS011;3877;42.562;27.636;2023-07-02T14:09:46;9.35;;;5.55;;
7669;SDS011;3877;42.562;27.636;2023-07-02T14:12:13;5.85;;;4.88;;
7669;SDS011;3877;42.562;27.636;2023-07-02T14:14:41;7.68;;;5.07;;
7669;SDS011;3877;42.562;27.636;2023-07-02T14:17:10;8.52;;;5.70;;
7669;SDS011;3877;42.562;27.636;2023-07-02T14:19:37;10.27;;;6.07;;
7669;SDS011;3877;42.562;27.636;2023-07-02T14:22:04;9.90;;;6.00;;
7669;SDS011;3877;42.562;27.636;2023-07-02T14:24:33;8.23;;;5.88;;
7669;SDS011;3877;42.562;27.636;2023-07-02T14:27:00;7.30;;;6.47;;
7669;SDS011;3877;42.562;27.636;2023-07-02T14:29:28;10.73;;;6.78;;
7669;SDS011;3877;42.562;27.636;2023-07-02T14:31:55;9.27;;;6.95;;
7669;SDS011;3877;42.562;27.636;2023-07-02T14:34:23;10.77;;;7.07;;
7669;SDS011;3877;42.562;27.636;2023-07-02T14:36:51;9.18;;;7.60;;
7669;SDS011;3877;42.562;27.636;2023-07-02T14:39:18;10.63;;;7.40;;
7669;SDS011;3877;42.562;27.636;2023-07-02T14:41:45;9.05;;;6.95;;
7669;SDS011;3877;42.562;27.636;2023-07-02T14:44:12;8.02;;;7.22;;
7669;SDS011;3877;42.562;27.636;2023-07-02T14:46:40;8.10;;;7.20;;
7669;SDS011;3877;42.562;27.636;2023-07-02T14:49:07;10.45;;;7.70;;
7669;SDS011;3877;42.562;27.636;2023-07-02T14:51:36;11.48;;;7.70;;
7669;SDS011;3877;42.562;27.636;2023-07-02T14:54:04;12.40;;;7.50;;
7669;SDS011;3877;42.562;27.636;2023-07-02T14:56:31;7.90;;;6.82;;
7669;SDS011;3877;42.562;27.636;2023-07-02T14:58:59;11.60;;;7.65;;
7669;SDS011;3877;42.562;27.636;2023-07-02T15:01:27;12.68;;;8.07;;
7669;SDS011;3877;42.562;27.636;2023-07-02T15:03:54;11.88;;;8.45;;
7669;SDS011;3877;42.562;27.636;2023-07-02T15:06:21;15.05;;;8.40;;
7669;SDS011;3877;42.562;27.636;2023-07-02T15:08:50;13.43;;;8.45;;
7669;SDS011;3877;42.562;27.636;2023-07-02T15:11:17;14.63;;;9.07;;
7669;SDS011;3877;42.562;27.636;2023-07-02T15:13:45;18.48;;;8.43;;
7669;SDS011;3877;42.562;27.636;2023-07-02T15:16:12;11.07;;;8.18;;
7669;SDS011;3877;42.562;27.636;2023-07-02T15:18:40;9.75;;;8.07;;
7669;SDS011;3877;42.562;27.636;2023-07-02T15:21:07;13.27;;;7.38;;